Time;durP1;ratioP1;P1;durP2;ratioP2;P2;SDS_P1;SDS_P2;PMS_P1;PMS_P2;Temp;Humidity;BMP_temperature;BMP_pressure;BME280_temperature;BME280_humidity;BME280_pressure;Samples;Min_cycle;Max_cycle;Signal;HPM_P1;HPM_P2
2021/12/09 00:02:20;;;;;;;10.63;3.33;;;1.70;99.90;;;;;;4860553;29;20465;-77
2021/12/09 00:04:47;;;;;;;12.00;4.28;;;1.70;99.90;;;;;;4860438;29;20082;-78
2021/12/09 00:07:12;;;;;;;9.07;3.17;;;1.70;99.90;;;;;;4860165;29;20114;-77
2021/12/09 00:09:38;;;;;;;11.32;4.13;;;1.70;99.90;;;;;;4860801;29;20046;-77
2021/12/09 00:12:05;;;;;;;10.05;3.95;;;1.70;99.90;;;;;;4843943;29;20061;-77
2021/12/09 00:14:32;;;;;;;8.57;3.15;;;1.80;99.90;;;;;;4860541;29;20052;-77
2021/12/09 00:17:02;;;;;;;9.05;3.50;;;1.70;99.90;;;;;;4845273;29;20061;-77
2021/12/09 00:19:28;;;;;;;10.93;4.10;;;1.70;99.90;;;;;;4844399;29;20049;-79
2021/12/09 00:21:55;;;;;;;11.15;4.30;;;1.70;99.90;;;;;;4860607;29;20055;-77
2021/12/09 00:24:21;;;;;;;11.88;3.47;;;1.60;99.90;;;;;;4863860;29;20057;-75
2021/12/09 00:26:47;;;;;;;12.60;4.07;;;1.60;99.90;;;;;;4864331;29;20129;-77
2021/12/09 00:29:15;;;;;;;11.98;3.63;;;1.50;99.90;;;;;;4864179;29;20050;-77
2021/12/09 00:31:41;;;;;;;12.20;4.30;;;1.50;99.90;;;;;;4864093;29;20399;-77
2021/12/09 00:34:07;;;;;;;12.98;4.78;;;1.50;99.90;;;;;;4862906;29;20045;-77
2021/12/09 00:36:38;;;;;;;13.10;6.03;;;1.40;99.90;;;;;;4863938;29;20041;-77
2021/12/09 00:39:07;;;;;;;13.63;5.63;;;1.40;99.90;;;;;;4863556;29;20062;-76
2021/12/09 00:41:33;;;;;;;11.40;4.00;;;1.40;99.90;;;;;;4863967;29;20068;-78
2021/12/09 00:43:59;;;;;;;12.75;4.70;;;1.40;99.90;;;;;;4863818;29;20057;-77
2021/12/09 00:46:25;;;;;;;10.10;4.65;;;1.40;99.90;;;;;;4847632;29;20073;-77
2021/12/09 00:48:50;;;;;;;8.35;3.67;;;1.30;99.90;;;;;;4863841;29;20058;-77
2021/12/09 00:51:17;;;;;;;12.32;5.07;;;1.20;99.90;;;;;;4863573;29;20445;-77
2021/12/09 00:53:43;;;;;;;20.90;4.97;;;1.20;99.90;;;;;;4847113;29;20061;-76
2021/12/09 00:56:10;;;;;;;14.38;5.95;;;1.20;99.90;;;;;;4863402;29;20057;-77
2021/12/09 00:58:37;;;;;;;13.55;5.18;;;1.20;99.90;;;;;;4863506;29;20045;-77
2021/12/09 01:01:06;;;;;;;14.77;5.05;;;1.20;99.90;;;;;;4863650;29;20088;-76
2021/12/09 01:03:33;;;;;;;14.65;5.25;;;1.10;99.90;;;;;;4863461;29;20045;-77
2021/12/09 01:05:59;;;;;;;13.27;5.80;;;1.10;99.90;;;;;;4863387;29;20053;-75
2021/12/09 01:08:24;;;;;;;12.25;4.88;;;1.10;99.90;;;;;;4863572;29;20057;-76
2021/12/09 01:10:50;;;;;;;12.77;5.05;;;1.10;99.90;;;;;;4862704;29;20084;-77
2021/12/09 01:13:16;;;;;;;20.13;6.60;;;1.10;99.90;;;;;;4863405;29;20045;-75
2021/12/09 01:15:43;;;;;;;15.40;5.95;;;1.10;99.90;;;;;;4863400;29;20140;-77
2021/12/09 01:18:09;;;;;;;13.35;5.25;;;2.00;99.90;;;;;;4846613;29;20053;-75
2021/12/09 01:20:34;;;;;;;17.88;6.28;;;1.10;99.90;;;;;;4846667;29;20106;-77
2021/12/09 01:23:02;;;;;;;13.13;5.90;;;1.10;99.90;;;;;;4863176;29;20053;-78
2021/12/09 01:25:32;;;;;;;15.25;6.18;;;1.00;99.90;;;;;;4861612;29;20045;-75
2021/12/09 01:27:58;;;;;;;18.30;6.13;;;1.00;99.90;;;;;;4830967;29;20062;-77
2021/12/09 01:30:24;;;;;;;15.63;6.57;;;1.00;99.90;;;;;;4862957;29;20053;-77
2021/12/09 01:32:55;;;;;;;13.38;5.80;;;1.00;99.90;;;;;;4862395;29;20524;-73
2021/12/09 01:35:23;;;;;;;13.70;6.28;;;1.00;99.90;;;;;;4862633;29;20045;-77
2021/12/09 01:37:54;;;;;;;14.93;5.85;;;1.10;99.90;;;;;;4863079;29;20053;-74
2021/12/09 01:40:21;;;;;;;14.70;6.25;;;1.00;99.90;;;;;;4862668;29;20136;-77
2021/12/09 01:42:46;;;;;;;14.93;5.93;;;1.10;99.90;;;;;;4861185;29;20050;-77
2021/12/09 01:45:15;;;;;;;17.58;6.38;;;1.00;99.90;;;;;;4862703;29;20060;-77
2021/12/09 01:47:41;;;;;;;13.30;6.25;;;1.00;99.90;;;;;;4862714;29;20049;-77
2021/12/09 01:50:09;;;;;;;20.20;6.53;;;1.00;99.90;;;;;;4862423;29;20181;-77
2021/12/09 01:52:35;;;;;;;19.52;7.65;;;1.00;99.90;;;;;;4862758;29;20053;-78
2021/12/09 01:55:00;;;;;;;17.30;7.18;;;1.10;99.90;;;;;;4862704;29;20050;-77
2021/12/09 01:57:26;;;;;;;17.10;6.80;;;1.00;99.90;;;;;;4862464;29;20057;-77
2021/12/09 01:59:52;;;;;;;16.90;6.82;;;1.10;99.90;;;;;;4862161;29;20046;-78
2021/12/09 02:02:18;;;;;;;19.42;7.43;;;1.00;99.90;;;;;;4862387;29;20053;-77
2021/12/09 02:04:44;;;;;;;18.67;6.55;;;1.00;99.90;;;;;;4862473;29;20046;-77
2021/12/09 02:07:10;;;;;;;17.50;7.43;;;1.00;99.90;;;;;;4862473;29;20490;-77
2021/12/09 02:09:35;;;;;;;18.27;7.70;;;1.10;99.90;;;;;;4862489;29;20514;-78
2021/12/09 02:12:03;;;;;;;17.25;7.40;;;1.10;99.90;;;;;;4862300;29;20053;-77
2021/12/09 02:14:29;;;;;;;17.42;7.20;;;1.10;99.90;;;;;;4845177;29;20054;-74
2021/12/09 02:16:55;;;;;;;15.20;6.97;;;1.20;99.90;;;;;;4862255;29;20041;-77
2021/12/09 02:19:20;;;;;;;13.68;7.00;;;1.20;99.90;;;;;;4862292;29;20523;-77
2021/12/09 02:21:46;;;;;;;15.23;7.72;;;1.20;99.90;;;;;;4860965;29;20092;-78
2021/12/09 02:24:16;;;;;;;16.55;8.05;;;1.10;99.90;;;;;;4862290;29;20048;-78
2021/12/09 02:26:45;;;;;;;14.20;6.65;;;1.10;99.90;;;;;;4862006;29;20092;-77
2021/12/09 02:29:12;;;;;;;18.45;7.35;;;1.10;99.90;;;;;;4861805;29;20417;-77
2021/12/09 02:31:40;;;;;;;14.90;6.88;;;1.10;99.90;;;;;;4861674;29;20068;-77
2021/12/09 02:34:10;;;;;;;12.98;7.22;;;1.10;99.90;;;;;;4861773;29;20056;-77
2021/12/09 02:36:39;;;;;;;18.88;8.20;;;1.00;99.90;;;;;;4860864;29;20854;-77
2021/12/09 02:39:07;;;;;;;17.17;6.90;;;1.00;99.90;;;;;;4861749;29;20058;-80
2021/12/09 02:41:35;;;;;;;15.77;7.55;;;1.00;99.90;;;;;;4861885;29;20064;-79
2021/12/09 02:44:05;;;;;;;16.20;7.55;;;0.90;99.90;;;;;;4861638;29;20097;-77
2021/12/09 02:46:37;;;;;;;17.70;8.07;;;0.90;99.90;;;;;;4861304;29;20058;-77
2021/12/09 02:49:04;;;;;;;;;;;0.90;99.90;;;;;;4861711;29;20077;-77
2021/12/09 02:51:30;;;;;;;16.35;7.82;;;0.90;99.90;;;;;;4861626;29;20406;-78
2021/12/09 02:53:56;;;;;;;21.13;7.72;;;0.80;99.90;;;;;;4861749;29;20128;-76
2021/12/09 02:56:24;;;;;;;17.05;7.85;;;0.80;99.90;;;;;;4861711;29;20046;-76
2021/12/09 02:58:50;;;;;;;17.17;7.03;;;0.80;99.90;;;;;;4860349;29;20383;-77
2021/12/09 03:01:20;;;;;;;16.92;8.30;;;0.80;99.90;;;;;;4844815;29;20092;-77
2021/12/09 03:03:51;;;;;;;17.42;7.93;;;0.80;99.90;;;;;;4860055;29;20053;-76
2021/12/09 03:06:23;;;;;;;15.20;7.28;;;0.80;99.90;;;;;;4861457;29;20502;-76
2021/12/09 03:08:49;;;;;;;14.55;7.60;;;0.80;99.90;;;;;;4845265;29;20053;-77
2021/12/09 03:11:21;;;;;;;17.20;8.35;;;1.00;99.90;;;;;;4844486;29;20053;-77
2021/12/09 03:13:48;;;;;;;15.95;7.72;;;0.70;99.90;;;;;;4861396;29;20521;-77
2021/12/09 03:16:15;;;;;;;15.10;7.80;;;0.70;99.90;;;;;;4861380;29;20117;-77
2021/12/09 03:18:43;;;;;;;15.93;8.45;;;0.70;99.90;;;;;;4860820;29;20050;-77
2021/12/09 03:21:15;;;;;;;16.02;8.32;;;0.70;99.90;;;;;;4860125;29;20185;-77
2021/12/09 03:23:41;;;;;;;18.92;8.35;;;0.70;99.90;;;;;;4860106;29;20046;-77
2021/12/09 03:26:07;;;;;;;19.13;8.20;;;0.70;99.90;;;;;;4861122;29;20060;-78
2021/12/09 03:28:32;;;;;;;18.80;8.93;;;0.60;99.90;;;;;;4861043;29;20042;-75
2021/12/09 03:31:01;;;;;;;16.15;8.65;;;0.60;99.90;;;;;;4860814;29;20136;-78
2021/12/09 03:33:27;;;;;;;19.70;9.07;;;0.60;99.90;;;;;;4859433;29;20049;-76
2021/12/09 03:36:02;;;;;;;18.02;9.25;;;0.60;99.90;;;;;;4861267;29;20451;-78
2021/12/09 03:38:32;;;;;;;15.35;8.88;;;0.60;99.90;;;;;;4861198;29;20433;-78
2021/12/09 03:40:58;;;;;;;18.65;9.02;;;1.10;99.90;;;;;;4858860;29;20506;-78
2021/12/09 03:43:25;;;;;;;21.80;9.77;;;0.60;99.90;;;;;;4860173;29;20053;-78
2021/12/09 03:45:53;;;;;;;18.75;8.90;;;0.60;99.90;;;;;;4858773;29;20053;-77
2021/12/09 03:48:19;;;;;;;18.50;8.73;;;0.60;99.90;;;;;;4859943;29;20061;-78
2021/12/09 03:50:45;;;;;;;19.27;9.30;;;0.60;99.90;;;;;;4858667;29;20054;-78
2021/12/09 03:53:12;;;;;;;18.70;9.23;;;0.50;99.90;;;;;;4860094;29;20057;-78
2021/12/09 03:55:39;;;;;;;20.58;8.93;;;0.50;99.90;;;;;;4860254;29;20447;-77
2021/12/09 03:58:05;;;;;;;19.17;9.30;;;0.50;99.90;;;;;;4849219;29;20045;-77
2021/12/09 04:00:30;;;;;;;17.83;9.20;;;0.50;99.90;;;;;;4849254;29;20525;-78
2021/12/09 04:02:57;;;;;;;18.17;9.20;;;1.20;99.90;;;;;;4849736;29;20088;-78
2021/12/09 04:05:22;;;;;;;20.13;9.13;;;0.50;99.90;;;;;;4865768;29;20046;-78
2021/12/09 04:07:48;;;;;;;22.80;10.23;;;1.60;99.90;;;;;;4866016;29;20052;-78
2021/12/09 04:10:14;;;;;;;18.88;9.18;;;0.50;99.90;;;;;;4864910;29;20046;-77
2021/12/09 04:12:40;;;;;;;19.63;10.13;;;0.50;99.90;;;;;;4866034;29;20049;-78
2021/12/09 04:15:07;;;;;;;24.30;10.85;;;0.50;99.90;;;;;;4865900;29;20049;-78
2021/12/09 04:17:33;;;;;;;22.35;10.60;;;0.50;99.90;;;;;;4866239;29;20075;-77
2021/12/09 04:19:59;;;;;;;22.23;10.27;;;0.60;99.90;;;;;;4865903;29;20054;-77
2021/12/09 04:22:24;;;;;;;19.42;10.35;;;0.60;99.90;;;;;;4865839;29;20041;-77
2021/12/09 04:24:52;;;;;;;23.25;10.63;;;0.60;99.90;;;;;;4864544;29;20049;-77
2021/12/09 04:27:18;;;;;;;19.20;10.00;;;0.60;99.90;;;;;;4865833;29;20041;-77
2021/12/09 04:29:44;;;;;;;19.75;10.60;;;0.60;99.90;;;;;;4865743;29;20405;-78
2021/12/09 04:32:10;;;;;;;19.73;10.35;;;0.60;99.90;;;;;;4865884;29;20046;-77
2021/12/09 04:34:36;;;;;;;24.25;10.32;;;0.60;99.90;;;;;;4849131;29;20053;-77
2021/12/09 04:37:02;;;;;;;20.23;10.23;;;0.60;99.90;;;;;;4865342;29;20084;-77
2021/12/09 04:41:21;;;;;;;24.13;10.50;;;0.60;99.90;;;;;;5172697;27;20830;-75
2021/12/09 04:43:47;;;;;;;23.95;11.95;;;0.60;99.90;;;;;;5172975;27;20042;-77
2021/12/09 04:46:15;;;;;;;24.17;10.60;;;0.60;99.90;;;;;;5172783;27;20043;-76
2021/12/09 04:48:41;;;;;;;20.27;10.32;;;0.60;99.90;;;;;;5172833;27;20053;-75
2021/12/09 04:51:07;;;;;;;18.33;10.02;;;0.60;99.90;;;;;;5173140;27;20125;-76
2021/12/09 04:53:33;;;;;;;17.92;10.05;;;0.60;99.90;;;;;;5153566;27;20038;-76
2021/12/09 04:56:00;;;;;;;22.58;10.52;;;0.60;99.90;;;;;;5154227;27;20050;-76
2021/12/09 04:58:27;;;;;;;21.63;10.07;;;0.70;99.90;;;;;;5154207;27;20053;-76
2021/12/09 05:00:54;;;;;;;23.10;11.40;;;0.70;99.90;;;;;;5153923;27;20133;-76
2021/12/09 05:03:20;;;;;;;23.88;11.32;;;0.70;99.90;;;;;;5154027;27;20085;-77
2021/12/09 05:05:49;;;;;;;23.05;11.25;;;0.70;99.90;;;;;;5172904;27;20409;-76
2021/12/09 05:08:18;;;;;;;20.10;10.73;;;0.70;99.90;;;;;;5188719;27;20069;-76
2021/12/09 05:11:03;;;;;;;24.20;12.00;;;0.70;99.90;;;;;;5172712;27;20042;-76
2021/12/09 05:13:30;;;;;;;24.17;11.65;;;0.70;99.90;;;;;;5153543;27;20059;-75
2021/12/09 05:15:58;;;;;;;22.10;10.98;;;0.70;99.90;;;;;;5172243;27;20121;-76
2021/12/09 05:18:25;;;;;;;25.08;11.98;;;0.70;99.90;;;;;;5153695;27;20046;-76
2021/12/09 05:20:51;;;;;;;22.80;11.32;;;0.70;99.90;;;;;;5172526;27;20035;-76
2021/12/09 05:23:19;;;;;;;21.27;11.23;;;0.70;99.90;;;;;;5171829;27;20071;-77
2021/12/09 05:25:45;;;;;;;21.10;11.73;;;0.70;99.90;;;;;;5171781;27;20114;-76
2021/12/09 05:28:15;;;;;;;22.42;12.20;;;0.60;99.90;;;;;;5172245;27;20043;-75
2021/12/09 05:33:28;;;;;;;23.85;12.80;;;0.70;99.90;;;;;;5172308;27;20038;-75
2021/12/09 05:35:54;;;;;;;26.83;11.32;;;0.70;99.90;;;;;;5172119;27;20521;-76
2021/12/09 05:38:20;;;;;;;22.83;11.77;;;0.70;99.90;;;;;;5172101;27;20071;-76
2021/12/09 05:40:47;;;;;;;24.10;11.35;;;0.70;99.90;;;;;;5171523;27;20133;-77
2021/12/09 05:43:14;;;;;;;21.35;10.88;;;0.70;99.90;;;;;;5171853;27;20042;-76
2021/12/09 05:45:41;;;;;;;20.55;11.55;;;0.70;99.90;;;;;;5153117;27;20083;-74
2021/12/09 05:48:08;;;;;;;24.92;12.27;;;0.70;99.90;;;;;;5135646;27;20060;-76
2021/12/09 05:50:34;;;;;;;21.98;11.27;;;0.70;99.90;;;;;;5151930;27;20501;-77
2021/12/09 05:53:00;;;;;;;26.13;11.57;;;0.70;99.90;;;;;;5139752;27;20047;-76
2021/12/09 05:55:27;;;;;;;25.40;11.85;;;0.60;99.90;;;;;;5139228;27;20601;-75
2021/12/09 05:57:52;;;;;;;25.83;12.68;;;0.70;99.90;;;;;;5139321;27;20043;-76
2021/12/09 06:00:19;;;;;;;27.25;12.27;;;0.60;99.90;;;;;;5139520;27;20048;-76
2021/12/09 06:02:45;;;;;;;28.33;13.07;;;0.70;99.90;;;;;;5158390;27;20049;-77
2021/12/09 06:05:10;;;;;;;25.60;12.63;;;0.70;99.90;;;;;;5157770;27;20031;-77
2021/12/09 06:07:36;;;;;;;24.48;12.30;;;0.60;99.90;;;;;;5157652;27;20443;-78
2021/12/09 06:10:08;;;;;;;23.02;13.00;;;0.60;99.90;;;;;;5157932;27;20385;-77
2021/12/09 06:12:35;;;;;;;25.15;11.30;;;0.60;99.90;;;;;;5138425;27;20031;-77
2021/12/09 06:15:01;;;;;;;29.48;13.27;;;0.60;99.90;;;;;;5157774;27;20043;-78
2021/12/09 06:17:26;;;;;;;21.45;12.70;;;0.60;99.90;;;;;;5158269;27;20037;-78
2021/12/09 06:19:52;;;;;;;29.33;12.73;;;0.50;99.90;;;;;;5139733;27;20047;-78
2021/12/09 06:22:17;;;;;;;22.40;12.02;;;0.60;99.90;;;;;;5157573;27;20366;-78
2021/12/09 06:24:45;;;;;;;26.90;13.13;;;0.50;99.90;;;;;;5138626;27;20424;-77
2021/12/09 06:27:11;;;;;;;24.17;12.35;;;0.50;99.90;;;;;;5138374;27;20050;-78
2021/12/09 06:29:37;;;;;;;25.00;13.32;;;0.50;99.90;;;;;;5156892;27;20041;-75
2021/12/09 06:32:03;;;;;;;28.50;12.75;;;0.50;99.90;;;;;;5157099;27;20096;-78
2021/12/09 06:34:30;;;;;;;29.67;12.85;;;0.50;99.90;;;;;;5156903;27;20409;-78
2021/12/09 06:36:56;;;;;;;24.80;13.07;;;0.50;99.90;;;;;;5157028;27;20427;-77
2021/12/09 06:39:21;;;;;;;25.92;12.32;;;0.50;99.90;;;;;;5156396;27;20054;-78
2021/12/09 06:41:50;;;;;;;28.25;12.55;;;0.50;99.90;;;;;;5156704;27;20042;-77
2021/12/09 06:44:16;;;;;;;27.35;13.45;;;1.60;99.90;;;;;;5155917;27;20122;-78
2021/12/09 06:46:42;;;;;;;26.02;13.88;;;0.50;99.90;;;;;;5138197;27;20130;-78
2021/12/09 06:49:07;;;;;;;25.75;12.70;;;0.50;99.90;;;;;;5138257;27;20047;-77
2021/12/09 06:51:34;;;;;;;28.23;13.55;;;0.50;99.90;;;;;;5156690;27;20053;-78
2021/12/09 06:53:59;;;;;;;22.70;12.38;;;0.50;99.90;;;;;;5172159;27;20114;-78
2021/12/09 06:56:27;;;;;;;26.88;12.13;;;0.50;99.90;;;;;;5156610;27;20039;-77
2021/12/09 06:58:53;;;;;;;25.35;13.68;;;0.50;99.90;;;;;;5154749;27;20042;-76
2021/12/09 07:01:19;;;;;;;30.88;13.27;;;0.50;99.90;;;;;;5156483;27;20086;-77
2021/12/09 07:03:47;;;;;;;23.77;14.25;;;0.50;99.90;;;;;;5155519;27;20091;-79
2021/12/09 07:06:12;;;;;;;22.33;12.68;;;0.50;99.90;;;;;;5138418;27;20390;-76
2021/12/09 07:08:46;;;;;;;29.00;12.73;;;0.50;99.90;;;;;;5119808;27;20054;-78
2021/12/09 07:11:12;;;;;;;24.13;12.85;;;0.70;99.90;;;;;;5137703;27;20099;-78
2021/12/09 07:13:38;;;;;;;31.25;13.95;;;0.50;99.90;;;;;;5137157;27;20046;-76
2021/12/09 07:16:04;;;;;;;24.38;13.80;;;0.50;99.90;;;;;;5155506;27;20039;-75
2021/12/09 07:18:30;;;;;;;30.00;14.68;;;0.50;99.90;;;;;;5156585;27;20070;-74
2021/12/09 07:20:57;;;;;;;33.58;14.75;;;0.40;99.90;;;;;;5156191;27;20050;-75
2021/12/09 07:23:22;;;;;;;33.45;16.73;;;0.50;99.90;;;;;;5137272;27;20073;-77
2021/12/09 07:25:49;;;;;;;30.85;15.57;;;0.70;99.90;;;;;;5155885;27;20104;-77
2021/12/09 07:28:14;;;;;;;28.17;15.77;;;0.50;99.90;;;;;;5137395;27;20091;-75
2021/12/09 07:30:41;;;;;;;30.40;15.75;;;0.50;99.90;;;;;;5155487;27;20389;-72
2021/12/09 07:33:08;;;;;;;26.73;15.90;;;0.50;99.90;;;;;;5155490;27;20034;-74
2021/12/09 07:35:34;;;;;;;31.55;15.88;;;0.50;99.90;;;;;;5087788;22;20056;-78
2021/12/09 07:38:01;;;;;;;31.33;16.25;;;0.50;99.90;;;;;;5073967;28;20051;-77
2021/12/09 07:40:28;;;;;;;30.10;15.55;;;0.50;99.90;;;;;;5073795;28;20051;-74
2021/12/09 07:42:54;;;;;;;27.50;15.82;;;0.50;99.90;;;;;;5069620;28;20097;-77
2021/12/09 07:45:20;;;;;;;25.70;15.23;;;0.50;99.90;;;;;;5070070;28;20045;-75
2021/12/09 07:47:47;;;;;;;27.75;14.50;;;0.40;99.90;;;;;;5071915;28;20400;-76
2021/12/09 07:50:17;;;;;;;36.08;15.05;;;0.50;99.90;;;;;;5072394;28;20044;-72
2021/12/09 07:52:45;;;;;;;25.85;15.02;;;0.40;99.90;;;;;;5038243;28;20063;-76
2021/12/09 07:55:15;;;;;;;25.80;14.35;;;0.40;99.90;;;;;;5073070;28;20465;-74
2021/12/09 07:57:42;;;;;;;25.45;14.38;;;0.40;99.90;;;;;;5038097;28;20049;-75
2021/12/09 08:00:12;;;;;;;28.25;14.77;;;0.40;99.90;;;;;;5072675;28;20162;-76
2021/12/09 08:02:41;;;;;;;24.95;14.73;;;0.30;99.90;;;;;;5071501;28;20045;-76
2021/12/09 08:05:08;;;;;;;27.55;14.38;;;0.30;99.90;;;;;;5072881;28;20041;-76
2021/12/09 08:07:34;;;;;;;24.60;14.45;;;0.30;99.90;;;;;;5054036;28;20045;-75
2021/12/09 08:10:00;;;;;;;29.60;14.75;;;0.30;99.90;;;;;;5072363;28;20102;-81
2021/12/09 08:12:25;;;;;;;25.20;14.27;;;0.30;99.90;;;;;;5072649;28;20106;-81
2021/12/09 08:14:51;;;;;;;27.35;14.55;;;0.30;99.90;;;;;;5072283;28;20043;-81
2021/12/09 08:20:05;;;;;;;28.42;13.90;;;0.30;99.90;;;;;;5071336;28;20052;-75
2021/12/09 08:22:32;;;;;;;23.88;12.60;;;0.30;99.90;;;;;;5072421;28;20048;-78
2021/12/09 08:24:59;;;;;;;24.83;14.60;;;0.20;99.90;;;;;;5072390;28;20078;-78
2021/12/09 08:27:26;;;;;;;25.33;13.50;;;1.10;99.90;;;;;;5071913;28;20074;-80
2021/12/09 08:29:52;;;;;;;27.10;14.20;;;0.20;99.90;;;;;;5037725;28;20049;-78
2021/12/09 08:32:17;;;;;;;27.33;14.35;;;0.30;99.90;;;;;;5072029;28;20427;-78
2021/12/09 08:34:43;;;;;;;30.25;14.32;;;0.30;99.90;;;;;;5071857;28;20052;-79
2021/12/09 08:37:09;;;;;;;29.45;14.18;;;0.30;99.90;;;;;;5054328;28;20488;-77
2021/12/09 08:39:35;;;;;;;23.95;13.13;;;0.30;99.90;;;;;;5053611;28;20450;-76
2021/12/09 08:42:01;;;;;;;26.42;12.68;;;0.30;99.90;;;;;;5072180;28;20076;-78
2021/12/09 08:44:27;;;;;;;24.00;13.73;;;0.30;99.90;;;;;;5071485;28;20052;-78
2021/12/09 08:46:52;;;;;;;28.00;13.13;;;0.40;99.90;;;;;;5071557;28;20037;-76
2021/12/09 08:49:18;;;;;;;31.23;14.27;;;0.40;99.90;;;;;;5052725;28;20045;-74
2021/12/09 08:51:44;;;;;;;24.38;12.88;;;-0.30;99.90;;;;;;5053719;28;20396;-78
2021/12/09 08:54:10;;;;;;;34.78;13.43;;;0.50;99.90;;;;;;5071895;28;20098;-74
2021/12/09 08:56:37;;;;;;;28.65;14.23;;;0.50;99.90;;;;;;5070599;28;20044;-76
2021/12/09 08:59:05;;;;;;;30.13;15.00;;;0.50;99.90;;;;;;5053040;28;20057;-72
2021/12/09 09:01:33;;;;;;;30.60;15.23;;;0.60;99.90;;;;;;5071138;28;20099;-74
2021/12/09 09:03:59;;;;;;;27.95;15.07;;;0.70;99.90;;;;;;5054133;28;20049;-72
2021/12/09 09:06:25;;;;;;;33.08;15.43;;;0.70;99.90;;;;;;5052329;28;20053;-76
2021/12/09 09:08:56;;;;;;;29.20;13.90;;;0.80;99.90;;;;;;5052769;28;20056;-78
2021/12/09 09:11:23;;;;;;;24.77;13.25;;;0.80;99.90;;;;;;5071288;28;20119;-73
2021/12/09 09:13:49;;;;;;;28.27;14.02;;;0.80;99.90;;;;;;5071001;28;20049;-73
2021/12/09 09:16:15;;;;;;;26.30;13.75;;;0.90;99.90;;;;;;5065426;28;20040;-75
2021/12/09 09:18:41;;;;;;;24.98;12.48;;;0.90;99.90;;;;;;5070846;28;20131;-78
2021/12/09 09:21:07;;;;;;;34.50;14.13;;;1.00;99.90;;;;;;5071751;28;20135;-75
2021/12/09 09:23:33;;;;;;;27.38;12.93;;;1.00;99.90;;;;;;5071207;28;20083;-77
2021/12/09 09:26:00;;;;;;;27.58;12.57;;;1.90;99.90;;;;;;5072292;28;20043;-74
2021/12/09 09:28:27;;;;;;;25.83;12.48;;;1.10;99.90;;;;;;5075444;28;20181;-78
2021/12/09 09:30:53;;;;;;;21.05;12.00;;;1.10;99.90;;;;;;5073629;28;20500;-74
2021/12/09 09:33:22;;;;;;;22.95;12.07;;;1.20;99.90;;;;;;5075457;28;20492;-72
2021/12/09 09:35:48;;;;;;;21.95;11.73;;;1.20;99.90;;;;;;5074994;28;20053;-76
2021/12/09 09:38:15;;;;;;;21.38;10.93;;;1.20;99.90;;;;;;5074584;28;20473;-79
2021/12/09 09:41:02;;;;;;;25.38;11.02;;;1.30;99.90;;;;;;5075285;28;20400;-77
2021/12/09 09:43:42;;;;;;;20.55;11.38;;;1.30;99.90;;;;;;5074715;28;20128;-81
2021/12/09 09:46:08;;;;;;;24.80;12.32;;;1.40;99.90;;;;;;5075688;28;20048;-75
2021/12/09 09:48:35;;;;;;;22.40;11.80;;;1.40;99.90;;;;;;5072709;28;20083;-74
2021/12/09 09:51:02;;;;;;;21.88;11.60;;;1.50;99.90;;;;;;5075307;28;20055;-78
2021/12/09 09:53:28;;;;;;;21.45;10.52;;;1.50;99.90;;;;;;5074274;28;20041;-82
2021/12/09 09:55:54;;;;;;;19.65;10.88;;;1.50;99.90;;;;;;5075173;28;20047;-81
2021/12/09 09:58:19;;;;;;;20.80;11.23;;;1.60;99.90;;;;;;5073507;28;20052;-74
2021/12/09 10:00:46;;;;;;;27.73;11.60;;;1.60;99.90;;;;;;5072865;28;20055;-75
2021/12/09 10:03:17;;;;;;;23.17;11.13;;;1.60;99.90;;;;;;5073873;28;20040;-76
2021/12/09 10:05:48;;;;;;;22.70;11.05;;;1.70;99.90;;;;;;5072821;28;20052;-74
2021/12/09 10:08:14;;;;;;;23.33;11.23;;;1.70;99.90;;;;;;5074743;28;20051;-77
2021/12/09 10:10:46;;;;;;;23.80;11.55;;;1.70;99.90;;;;;;5074860;28;20127;-76
2021/12/09 10:13:14;;;;;;;18.20;10.35;;;2.60;99.90;;;;;;5074496;28;20048;-74
2021/12/09 10:15:51;;;;;;;20.08;10.35;;;1.80;99.90;;;;;;5074568;28;20492;-77
2021/12/09 10:18:40;;;;;;;20.95;10.05;;;1.80;99.90;;;;;;5074956;28;20050;-78
2021/12/09 10:21:08;;;;;;;23.25;10.63;;;1.80;99.90;;;;;;5074054;28;20053;-72
2021/12/09 10:23:45;;;;;;;26.73;11.55;;;1.90;99.90;;;;;;5072225;28;20052;-76
2021/12/09 10:26:28;;;;;;;21.17;10.57;;;1.90;99.90;;;;;;5069284;28;20557;-78
2021/12/09 10:29:02;;;;;;;20.17;10.98;;;2.00;99.90;;;;;;5072197;28;20055;-79
2021/12/09 10:31:35;;;;;;;22.90;12.13;;;2.00;99.90;;;;;;5071402;28;20044;-76
2021/12/09 10:34:11;;;;;;;19.52;9.57;;;2.00;99.90;;;;;;5072599;28;20145;-79
2021/12/09 10:36:48;;;;;;;18.02;9.57;;;2.10;99.90;;;;;;5073343;28;20051;-78
2021/12/09 10:39:17;;;;;;;25.67;10.32;;;2.10;99.90;;;;;;5072947;28;20130;-77
2021/12/09 10:41:44;;;;;;;20.02;10.68;;;2.20;99.90;;;;;;5072822;28;20040;-73
2021/12/09 10:44:10;;;;;;;19.83;9.52;;;2.20;99.90;;;;;;5072800;28;20051;-77
2021/12/09 10:47:04;;;;;;;17.55;10.13;;;2.20;99.90;;;;;;5073156;28;20131;-77
2021/12/09 10:49:35;;;;;;;19.05;9.57;;;2.20;99.90;;;;;;5073562;28;20079;-81
2021/12/09 10:52:19;;;;;;;21.58;10.35;;;2.30;99.90;;;;;;5074100;28;20101;-74
2021/12/09 10:54:45;;;;;;;18.80;9.77;;;2.30;99.90;;;;;;5073420;28;20045;-77
2021/12/09 10:57:29;;;;;;;18.85;9.93;;;2.30;99.90;;;;;;5073777;28;20090;-77
2021/12/09 10:59:55;;;;;;;21.15;8.80;;;2.40;99.90;;;;;;5071742;28;20044;-72
2021/12/09 11:02:21;;;;;;;19.30;9.68;;;2.40;99.90;;;;;;5072295;28;20178;-71
2021/12/09 11:05:07;;;;;;;16.58;8.98;;;2.40;99.90;;;;;;5073227;28;20055;-72
2021/12/09 11:07:33;;;;;;;21.63;8.90;;;2.50;99.90;;;;;;5073256;28;20511;-75
2021/12/09 11:10:19;;;;;;;16.63;8.45;;;2.50;99.90;;;;;;5072857;28;20041;-78
2021/12/09 11:12:54;;;;;;;15.77;8.73;;;2.60;99.90;;;;;;5067772;28;20041;-72
2021/12/09 11:15:22;;;;;;;18.38;8.52;;;2.60;99.90;;;;;;5067591;28;20045;-71
2021/12/09 11:17:51;;;;;;;18.17;8.63;;;2.70;99.90;;;;;;5070865;28;20055;-76
2021/12/09 11:20:44;;;;;;;17.65;8.80;;;3.60;99.90;;;;;;5071981;28;20123;-79
2021/12/09 11:23:54;;;;;;;19.27;7.93;;;2.80;99.90;;;;;;5071441;28;20082;-72
2021/12/09 11:26:29;;;;;;;17.65;8.18;;;2.80;99.90;;;;;;5073391;28;20123;-71
2021/12/09 11:29:04;;;;;;;21.38;8.50;;;2.90;99.90;;;;;;5071606;28;20076;-76
2021/12/09 11:31:33;;;;;;;18.52;8.63;;;2.80;99.90;;;;;;5072897;28;20045;-73
2021/12/09 11:34:07;;;;;;;17.65;8.48;;;2.80;99.90;;;;;;5072710;28;20036;-78
2021/12/09 11:36:53;;;;;;;15.45;7.78;;;2.80;99.90;;;;;;5072673;28;20468;-75
2021/12/09 11:39:27;;;;;;;18.73;8.98;;;2.80;99.90;;;;;;5072518;28;20040;-77
2021/12/09 11:41:54;;;;;;;19.38;8.43;;;2.90;99.90;;;;;;5072417;28;20052;-75
2021/12/09 11:44:20;;;;;;;17.15;8.73;;;2.90;99.90;;;;;;5072331;28;20040;-71
2021/12/09 11:46:47;;;;;;;13.95;7.88;;;3.20;99.90;;;;;;5072077;28;20495;-77
2021/12/09 11:49:14;;;;;;;17.05;8.38;;;2.90;99.90;;;;;;5072107;28;20036;-77
2021/12/09 11:51:40;;;;;;;15.30;8.85;;;2.90;99.90;;;;;;5072232;28;20083;-76
2021/12/09 11:54:10;;;;;;;18.30;9.15;;;2.90;99.90;;;;;;5071151;28;20085;-79
2021/12/09 11:56:56;;;;;;;19.30;9.30;;;2.90;99.90;;;;;;5072290;28;20080;-79
2021/12/09 12:11:25;;;;;;;17.25;8.77;;;3.10;99.90;;;;;;5069276;28;20052;-73
2021/12/09 12:13:58;;;;;;;18.52;8.13;;;3.10;99.90;;;;;;5071907;28;20037;-78
2021/12/09 12:22:00;;;;;;;18.40;8.30;;;3.60;99.90;;;;;;5071863;28;20459;-81
2021/12/09 12:25:05;;;;;;;16.73;8.25;;;3.40;99.90;;;;;;5054570;28;20087;-73
2021/12/09 12:31:12;;;;;;;16.40;7.88;;;3.40;99.90;;;;;;4971082;28;20084;-79
2021/12/09 12:33:54;;;;;;;19.67;9.32;;;3.30;99.90;;;;;;4958421;28;20051;-72
2021/12/09 12:45:16;;;;;;;21.83;9.48;;;3.20;99.90;;;;;;4987390;28;20050;-75
2021/12/09 12:47:52;;;;;;;15.63;8.33;;;3.20;99.90;;;;;;4987271;28;20063;-77
2021/12/09 12:50:21;;;;;;;18.45;9.45;;;3.10;99.90;;;;;;4948246;28;20061;-75
2021/12/09 12:52:47;;;;;;;17.55;8.57;;;3.10;99.90;;;;;;4952772;28;20047;-75
2021/12/09 12:55:25;;;;;;;18.40;9.20;;;3.10;99.90;;;;;;4967499;28;20109;-75
2021/12/09 12:57:53;;;;;;;19.27;9.35;;;3.10;99.90;;;;;;4991024;28;20065;-73
2021/12/09 13:00:31;;;;;;;15.95;8.23;;;3.10;99.90;;;;;;4970502;28;20442;-78
2021/12/09 13:03:10;;;;;;;18.20;9.35;;;3.10;99.90;;;;;;4989300;28;20058;-81
2021/12/09 13:09:14;;;;;;;16.50;8.93;;;3.10;99.90;;;;;;5013820;28;20050;-77
2021/12/09 13:11:52;;;;;;;21.20;8.98;;;3.60;99.90;;;;;;4958295;28;20042;-81
2021/12/09 13:14:32;;;;;;;17.55;8.93;;;3.10;99.90;;;;;;4975345;28;20047;-77
2021/12/09 13:22:11;;;;;;;17.92;8.90;;;3.10;99.90;;;;;;4974946;28;20182;-79
2021/12/09 13:24:49;;;;;;;19.52;9.15;;;3.20;99.90;;;;;;4988293;28;20046;-69
2021/12/09 13:35:28;;;;;;;18.67;8.93;;;3.20;99.90;;;;;;4993383;28;20150;-77
2021/12/09 13:49:10;;;;;;;21.33;11.25;;;3.30;99.90;;;;;;5006709;28;20453;-76
2021/12/09 13:54:25;;;;;;;20.33;9.43;;;3.20;99.90;;;;;;4994256;28;20082;-83
2021/12/09 13:57:08;;;;;;;22.83;10.43;;;3.20;99.90;;;;;;4994270;28;20118;-75
2021/12/09 13:59:36;;;;;;;16.40;9.80;;;3.20;99.90;;;;;;4993470;28;20057;-78